sensor_id;sensor_type;location;lat;lon;timestamp;temperature;humidity
837;DHT22;400;53.550;9.932;2023-07-13T00:02:07;18.80;1.00
837;DHT22;400;53.550;9.932;2023-07-13T00:04:33;18.80;1.00
837;DHT22;400;53.550;9.932;2023-07-13T00:07:00;18.70;1.00
837;DHT22;400;53.550;9.932;2023-07-13T00:09:30;18.70;1.00
837;DHT22;400;53.550;9.932;2023-07-13T00:12:01;18.70;1.00
837;DHT22;400;53.550;9.932;2023-07-13T00:14:38;18.60;1.00
837;DHT22;400;53.550;9.932;2023-07-13T00:17:09;18.60;1.00
837;DHT22;400;53.550;9.932;2023-07-13T00:19:42;18.50;1.00
837;DHT22;400;53.550;9.932;2023-07-13T00:22:14;18.60;1.00
837;DHT22;400;53.550;9.932;2023-07-13T00:24:43;18.50;1.00
837;DHT22;400;53.550;9.932;2023-07-13T00:27:10;18.50;1.00
837;DHT22;400;53.550;9.932;2023-07-13T00:29:39;18.50;1.00
837;DHT22;400;53.550;9.932;2023-07-13T00:32:08;18.40;1.00
837;DHT22;400;53.550;9.932;2023-07-13T00:34:37;18.40;1.00
837;DHT22;400;53.550;9.932;2023-07-13T00:37:06;18.40;1.00
837;DHT22;400;53.550;9.932;2023-07-13T00:39:33;18.40;1.00
837;DHT22;400;53.550;9.932;2023-07-13T00:42:00;18.40;1.00
837;DHT22;400;53.550;9.932;2023-07-13T00:44:27;18.40;1.00
837;DHT22;400;53.550;9.932;2023-07-13T00:46:56;18.40;1.00
837;DHT22;400;53.550;9.932;2023-07-13T00:49:25;18.30;1.00
837;DHT22;400;53.550;9.932;2023-07-13T00:51:56;18.30;1.00
837;DHT22;400;53.550;9.932;2023-07-13T00:54:27;18.20;1.00
837;DHT22;400;53.550;9.932;2023-07-13T00:56:58;18.10;1.00
837;DHT22;400;53.550;9.932;2023-07-13T00:59:27;18.20;1.00
837;DHT22;400;53.550;9.932;2023-07-13T01:02:04;18.10;1.00
837;DHT22;400;53.550;9.932;2023-07-13T01:04:37;18.10;1.00
837;DHT22;400;53.550;9.932;2023-07-13T01:07:13;18.10;1.00
837;DHT22;400;53.550;9.932;2023-07-13T01:09:43;18.10;1.00
837;DHT22;400;53.550;9.932;2023-07-13T01:12:11;18.10;1.00
837;DHT22;400;53.550;9.932;2023-07-13T01:14:39;18.00;1.00
837;DHT22;400;53.550;9.932;2023-07-13T01:17:10;18.00;1.00
837;DHT22;400;53.550;9.932;2023-07-13T01:19:39;18.10;1.00
837;DHT22;400;53.550;9.932;2023-07-13T01:22:09;18.00;1.00
837;DHT22;400;53.550;9.932;2023-07-13T01:24:38;18.00;1.00
837;DHT22;400;53.550;9.932;2023-07-13T01:27:10;18.00;1.00
837;DHT22;400;53.550;9.932;2023-07-13T01:29:40;18.00;1.00
837;DHT22;400;53.550;9.932;2023-07-13T01:32:09;18.00;1.00
837;DHT22;400;53.550;9.932;2023-07-13T01:34:36;18.00;1.00
837;DHT22;400;53.550;9.932;2023-07-13T01:37:04;18.00;1.00
837;DHT22;400;53.550;9.932;2023-07-13T01:39:32;18.00;1.00
837;DHT22;400;53.550;9.932;2023-07-13T01:41:59;18.00;1.00
837;DHT22;400;53.550;9.932;2023-07-13T01:44:26;17.90;1.00
837;DHT22;400;53.550;9.932;2023-07-13T01:46:53;17.90;1.00
837;DHT22;400;53.550;9.932;2023-07-13T01:49:20;18.00;1.00
837;DHT22;400;53.550;9.932;2023-07-13T01:51:47;17.90;1.00
837;DHT22;400;53.550;9.932;2023-07-13T01:54:14;17.90;1.00
837;DHT22;400;53.550;9.932;2023-07-13T01:56:43;17.90;1.00
837;DHT22;400;53.550;9.932;2023-07-13T01:59:09;17.90;1.00
837;DHT22;400;53.550;9.932;2023-07-13T02:01:36;17.90;1.00
837;DHT22;400;53.550;9.932;2023-07-13T02:04:04;17.80;1.00
837;DHT22;400;53.550;9.932;2023-07-13T02:06:31;17.70;1.00
837;DHT22;400;53.550;9.932;2023-07-13T02:08:58;17.60;1.00
837;DHT22;400;53.550;9.932;2023-07-13T02:11:25;17.60;1.00
837;DHT22;400;53.550;9.932;2023-07-13T02:13:59;17.70;1.00
837;DHT22;400;53.550;9.932;2023-07-13T02:16:26;17.60;1.00
837;DHT22;400;53.550;9.932;2023-07-13T02:18:53;17.70;1.00
837;DHT22;400;53.550;9.932;2023-07-13T02:21:21;17.70;1.00
837;DHT22;400;53.550;9.932;2023-07-13T02:23:48;17.70;1.00
837;DHT22;400;53.550;9.932;2023-07-13T02:26:15;17.70;1.00
837;DHT22;400;53.550;9.932;2023-07-13T02:28:43;17.70;1.00
837;DHT22;400;53.550;9.932;2023-07-13T02:31:13;17.70;1.00
837;DHT22;400;53.550;9.932;2023-07-13T02:33:41;17.70;1.00
837;DHT22;400;53.550;9.932;2023-07-13T02:36:08;17.70;1.00
837;DHT22;400;53.550;9.932;2023-07-13T02:38:35;17.70;1.00
837;DHT22;400;53.550;9.932;2023-07-13T02:41:03;17.70;1.00
837;DHT22;400;53.550;9.932;2023-07-13T02:43:29;17.70;1.00
837;DHT22;400;53.550;9.932;2023-07-13T02:45:58;17.70;1.00
837;DHT22;400;53.550;9.932;2023-07-13T02:48:30;17.70;1.00
837;DHT22;400;53.550;9.932;2023-07-13T02:50:57;17.70;1.00
837;DHT22;400;53.550;9.932;2023-07-13T02:53:24;17.60;1.00
837;DHT22;400;53.550;9.932;2023-07-13T02:55:52;17.60;1.00
837;DHT22;400;53.550;9.932;2023-07-13T02:58:19;17.60;1.00
837;DHT22;400;53.550;9.932;2023-07-13T03:00:47;17.50;1.00
837;DHT22;400;53.550;9.932;2023-07-13T03:03:16;17.50;1.00
837;DHT22;400;53.550;9.932;2023-07-13T03:05:57;17.60;1.00
837;DHT22;400;53.550;9.932;2023-07-13T03:08:28;17.60;1.00
837;DHT22;400;53.550;9.932;2023-07-13T03:11:03;17.50;1.00
837;DHT22;400;53.550;9.932;2023-07-13T03:13:34;17.50;1.00
837;DHT22;400;53.550;9.932;2023-07-13T03:16:02;17.40;1.00
837;DHT22;400;53.550;9.932;2023-07-13T03:18:32;17.40;1.00
837;DHT22;400;53.550;9.932;2023-07-13T03:21:00;17.40;1.00
837;DHT22;400;53.550;9.932;2023-07-13T03:23:28;17.40;1.00
837;DHT22;400;53.550;9.932;2023-07-13T03:26:02;17.40;1.00
837;DHT22;400;53.550;9.932;2023-07-13T03:28:30;17.40;1.00
837;DHT22;400;53.550;9.932;2023-07-13T03:31:01;17.40;1.00
837;DHT22;400;53.550;9.932;2023-07-13T03:33:29;17.50;1.00
837;DHT22;400;53.550;9.932;2023-07-13T03:35:56;17.40;1.00
837;DHT22;400;53.550;9.932;2023-07-13T03:38:25;17.40;1.00
837;DHT22;400;53.550;9.932;2023-07-13T03:40:52;17.40;1.00
837;DHT22;400;53.550;9.932;2023-07-13T03:43:19;17.40;1.00
837;DHT22;400;53.550;9.932;2023-07-13T03:45:47;17.50;1.00
837;DHT22;400;53.550;9.932;2023-07-13T03:48:14;17.40;1.00
837;DHT22;400;53.550;9.932;2023-07-13T03:50:42;17.30;1.00
837;DHT22;400;53.550;9.932;2023-07-13T03:53:09;17.30;1.00
837;DHT22;400;53.550;9.932;2023-07-13T03:55:37;17.30;1.00
837;DHT22;400;53.550;9.932;2023-07-13T03:58:27;17.30;1.00
837;DHT22;400;53.550;9.932;2023-07-13T04:00:54;17.30;1.00
837;DHT22;400;53.550;9.932;2023-07-13T04:03:24;17.30;1.00
837;DHT22;400;53.550;9.932;2023-07-13T04:05:54;17.30;1.00
837;DHT22;400;53.550;9.932;2023-07-13T04:08:26;17.40;1.00
837;DHT22;400;53.550;9.932;2023-07-13T04:10:54;17.40;1.00
837;DHT22;400;53.550;9.932;2023-07-13T04:13:21;17.40;1.00
837;DHT22;400;53.550;9.932;2023-07-13T04:15:50;17.30;1.00
837;DHT22;400;53.550;9.932;2023-07-13T04:18:18;17.40;1.00
837;DHT22;400;53.550;9.932;2023-07-13T04:20:48;17.40;1.00
837;DHT22;400;53.550;9.932;2023-07-13T04:23:22;17.40;1.00
837;DHT22;400;53.550;9.932;2023-07-13T04:25:53;17.40;1.00
837;DHT22;400;53.550;9.932;2023-07-13T04:28:22;17.40;1.00
837;DHT22;400;53.550;9.932;2023-07-13T04:30:53;17.50;1.00
837;DHT22;400;53.550;9.932;2023-07-13T04:33:20;17.50;1.00
837;DHT22;400;53.550;9.932;2023-07-13T04:35:51;17.60;1.00
837;DHT22;400;53.550;9.932;2023-07-13T04:38:25;17.60;1.00
837;DHT22;400;53.550;9.932;2023-07-13T04:41:03;17.70;1.00
837;DHT22;400;53.550;9.932;2023-07-13T04:43:38;17.80;1.00
837;DHT22;400;53.550;9.932;2023-07-13T04:46:12;17.80;1.00
837;DHT22;400;53.550;9.932;2023-07-13T04:48:41;17.90;1.00
837;DHT22;400;53.550;9.932;2023-07-13T04:51:08;18.00;1.00
837;DHT22;400;53.550;9.932;2023-07-13T04:53:35;18.00;1.00
837;DHT22;400;53.550;9.932;2023-07-13T04:56:04;18.10;1.00
837;DHT22;400;53.550;9.932;2023-07-13T04:58:31;18.20;1.00
837;DHT22;400;53.550;9.932;2023-07-13T05:01:00;18.30;1.00
837;DHT22;400;53.550;9.932;2023-07-13T05:03:27;18.40;1.00
837;DHT22;400;53.550;9.932;2023-07-13T05:06:00;18.40;1.00
837;DHT22;400;53.550;9.932;2023-07-13T05:08:33;18.50;1.00
837;DHT22;400;53.550;9.932;2023-07-13T05:11:04;18.30;1.00
837;DHT22;400;53.550;9.932;2023-07-13T05:13:35;18.40;1.00
837;DHT22;400;53.550;9.932;2023-07-13T05:16:05;18.40;1.00
837;DHT22;400;53.550;9.932;2023-07-13T05:18:33;18.30;1.00
837;DHT22;400;53.550;9.932;2023-07-13T05:21:06;18.50;1.00
837;DHT22;400;53.550;9.932;2023-07-13T05:23:37;18.50;1.00
837;DHT22;400;53.550;9.932;2023-07-13T05:26:05;18.50;1.00
837;DHT22;400;53.550;9.932;2023-07-13T05:28:36;18.30;1.00
837;DHT22;400;53.550;9.932;2023-07-13T05:31:05;18.50;1.00
837;DHT22;400;53.550;9.932;2023-07-13T05:33:37;18.60;1.00
837;DHT22;400;53.550;9.932;2023-07-13T05:36:10;18.60;1.00
837;DHT22;400;53.550;9.932;2023-07-13T05:38:41;18.50;1.00
837;DHT22;400;53.550;9.932;2023-07-13T05:41:15;18.50;1.00
837;DHT22;400;53.550;9.932;2023-07-13T05:43:47;18.20;1.00
837;DHT22;400;53.550;9.932;2023-07-13T05:46:15;18.10;1.00
837;DHT22;400;53.550;9.932;2023-07-13T05:48:42;18.30;1.00
837;DHT22;400;53.550;9.932;2023-07-13T05:51:09;18.00;1.00
837;DHT22;400;53.550;9.932;2023-07-13T05:53:36;17.90;1.00
837;DHT22;400;53.550;9.932;2023-07-13T05:56:03;18.00;1.00
837;DHT22;400;53.550;9.932;2023-07-13T05:58:31;18.00;1.00
837;DHT22;400;53.550;9.932;2023-07-13T06:01:00;18.10;1.00
837;DHT22;400;53.550;9.932;2023-07-13T06:03:29;17.90;1.00
837;DHT22;400;53.550;9.932;2023-07-13T06:06:00;18.20;1.00
837;DHT22;400;53.550;9.932;2023-07-13T06:08:33;18.40;1.00
837;DHT22;400;53.550;9.932;2023-07-13T06:11:05;18.30;1.00
837;DHT22;400;53.550;9.932;2023-07-13T06:13:34;18.40;1.00
837;DHT22;400;53.550;9.932;2023-07-13T06:16:02;18.40;1.00
837;DHT22;400;53.550;9.932;2023-07-13T06:18:31;18.50;1.00
837;DHT22;400;53.550;9.932;2023-07-13T06:20:58;18.20;1.00
837;DHT22;400;53.550;9.932;2023-07-13T06:23:25;18.30;1.00
837;DHT22;400;53.550;9.932;2023-07-13T06:25:52;18.20;1.00
837;DHT22;400;53.550;9.932;2023-07-13T06:28:20;18.30;1.00
837;DHT22;400;53.550;9.932;2023-07-13T06:30:53;18.10;1.00
837;DHT22;400;53.550;9.932;2023-07-13T06:33:25;18.10;1.00
837;DHT22;400;53.550;9.932;2023-07-13T06:35:54;18.20;1.00
837;DHT22;400;53.550;9.932;2023-07-13T06:38:22;18.30;1.00
837;DHT22;400;53.550;9.932;2023-07-13T06:40:48;18.40;1.00
837;DHT22;400;53.550;9.932;2023-07-13T06:43:16;18.50;1.00
837;DHT22;400;53.550;9.932;2023-07-13T06:45:45;18.50;1.00
837;DHT22;400;53.550;9.932;2023-07-13T06:48:18;18.60;1.00
837;DHT22;400;53.550;9.932;2023-07-13T06:50:48;18.70;1.00
837;DHT22;400;53.550;9.932;2023-07-13T06:53:17;18.80;1.00
837;DHT22;400;53.550;9.932;2023-07-13T06:55:45;18.90;1.00
837;DHT22;400;53.550;9.932;2023-07-13T06:58:17;18.80;1.00
837;DHT22;400;53.550;9.932;2023-07-13T07:00:45;18.90;1.00
837;DHT22;400;53.550;9.932;2023-07-13T07:03:13;18.90;1.00
837;DHT22;400;53.550;9.932;2023-07-13T07:05:41;19.10;1.00
837;DHT22;400;53.550;9.932;2023-07-13T07:08:12;19.10;1.00
837;DHT22;400;53.550;9.932;2023-07-13T07:10:48;19.00;1.00
837;DHT22;400;53.550;9.932;2023-07-13T07:13:20;18.90;1.00
837;DHT22;400;53.550;9.932;2023-07-13T07:15:46;19.00;1.00
837;DHT22;400;53.550;9.932;2023-07-13T07:18:14;19.10;1.00
837;DHT22;400;53.550;9.932;2023-07-13T07:20:42;19.10;1.00
837;DHT22;400;53.550;9.932;2023-07-13T07:23:08;19.40;1.00
837;DHT22;400;53.550;9.932;2023-07-13T07:25:35;19.40;1.00
837;DHT22;400;53.550;9.932;2023-07-13T07:28:07;19.40;1.00
837;DHT22;400;53.550;9.932;2023-07-13T07:30:37;19.50;1.00
837;DHT22;400;53.550;9.932;2023-07-13T07:33:12;19.60;1.00
837;DHT22;400;53.550;9.932;2023-07-13T07:35:43;19.40;1.00
837;DHT22;400;53.550;9.932;2023-07-13T07:38:13;19.60;1.00
837;DHT22;400;53.550;9.932;2023-07-13T07:40:44;19.80;1.00
837;DHT22;400;53.550;9.932;2023-07-13T07:43:16;19.90;1.00
837;DHT22;400;53.550;9.932;2023-07-13T07:45:47;19.90;1.00
837;DHT22;400;53.550;9.932;2023-07-13T07:48:16;19.70;1.00
837;DHT22;400;53.550;9.932;2023-07-13T07:50:44;19.80;1.00
837;DHT22;400;53.550;9.932;2023-07-13T07:53:11;19.70;1.00
837;DHT22;400;53.550;9.932;2023-07-13T07:55:38;20.00;1.00
837;DHT22;400;53.550;9.932;2023-07-13T07:58:05;19.80;1.00
837;DHT22;400;53.550;9.932;2023-07-13T08:00:33;19.60;1.00
837;DHT22;400;53.550;9.932;2023-07-13T08:03:01;19.70;1.00
837;DHT22;400;53.550;9.932;2023-07-13T08:05:31;19.90;1.00
837;DHT22;400;53.550;9.932;2023-07-13T08:08:05;19.80;1.00
837;DHT22;400;53.550;9.932;2023-07-13T08:10:35;19.80;1.00
837;DHT22;400;53.550;9.932;2023-07-13T08:13:02;19.90;1.00
837;DHT22;400;53.550;9.932;2023-07-13T08:15:31;20.20;1.00
837;DHT22;400;53.550;9.932;2023-07-13T08:18:01;20.20;1.00
837;DHT22;400;53.550;9.932;2023-07-13T08:20:29;20.30;1.00
837;DHT22;400;53.550;9.932;2023-07-13T08:22:56;20.40;1.00
837;DHT22;400;53.550;9.932;2023-07-13T08:25:27;20.60;1.00
837;DHT22;400;53.550;9.932;2023-07-13T08:27:59;20.80;1.00
837;DHT22;400;53.550;9.932;2023-07-13T08:30:29;20.70;1.00
837;DHT22;400;53.550;9.932;2023-07-13T08:33:01;20.70;1.00
837;DHT22;400;53.550;9.932;2023-07-13T08:35:31;20.80;1.00
837;DHT22;400;53.550;9.932;2023-07-13T08:38:03;20.90;1.00
837;DHT22;400;53.550;9.932;2023-07-13T08:40:34;20.90;1.00
837;DHT22;400;53.550;9.932;2023-07-13T08:43:01;20.90;1.00
837;DHT22;400;53.550;9.932;2023-07-13T08:45:30;20.80;1.00
837;DHT22;400;53.550;9.932;2023-07-13T08:48:05;20.60;1.00
837;DHT22;400;53.550;9.932;2023-07-13T08:50:42;20.60;1.00
837;DHT22;400;53.550;9.932;2023-07-13T08:53:13;20.50;1.00
837;DHT22;400;53.550;9.932;2023-07-13T08:55:43;20.50;1.00
837;DHT22;400;53.550;9.932;2023-07-13T08:58:12;20.30;1.00
837;DHT22;400;53.550;9.932;2023-07-13T09:00:44;20.60;1.00
837;DHT22;400;53.550;9.932;2023-07-13T09:03:20;20.60;1.00
837;DHT22;400;53.550;9.932;2023-07-13T09:05:53;20.60;1.00
837;DHT22;400;53.550;9.932;2023-07-13T09:08:46;20.60;1.00
837;DHT22;400;53.550;9.932;2023-07-13T09:11:27;20.70;1.00
837;DHT22;400;53.550;9.932;2023-07-13T09:14:02;20.70;1.00
837;DHT22;400;53.550;9.932;2023-07-13T09:16:31;20.70;1.00
837;DHT22;400;53.550;9.932;2023-07-13T09:19:02;21.00;1.00
837;DHT22;400;53.550;9.932;2023-07-13T09:21:36;21.10;1.00
837;DHT22;400;53.550;9.932;2023-07-13T09:24:32;21.20;1.00
837;DHT22;400;53.550;9.932;2023-07-13T09:27:13;21.20;1.00
837;DHT22;400;53.550;9.932;2023-07-13T09:29:48;21.30;1.00
837;DHT22;400;53.550;9.932;2023-07-13T09:32:18;21.50;1.00
837;DHT22;400;53.550;9.932;2023-07-13T09:34:52;21.80;1.00
837;DHT22;400;53.550;9.932;2023-07-13T09:37:23;21.80;1.00
837;DHT22;400;53.550;9.932;2023-07-13T09:39:56;21.90;1.00
837;DHT22;400;53.550;9.932;2023-07-13T09:42:25;21.80;1.00
837;DHT22;400;53.550;9.932;2023-07-13T09:44:56;21.90;1.00
837;DHT22;400;53.550;9.932;2023-07-13T09:47:25;21.90;1.00
837;DHT22;400;53.550;9.932;2023-07-13T09:49:57;22.10;1.00
837;DHT22;400;53.550;9.932;2023-07-13T09:52:25;22.40;1.00
837;DHT22;400;53.550;9.932;2023-07-13T09:54:53;22.40;1.00
837;DHT22;400;53.550;9.932;2023-07-13T09:57:28;22.40;1.00
837;DHT22;400;53.550;9.932;2023-07-13T10:00:00;22.40;1.00
837;DHT22;400;53.550;9.932;2023-07-13T10:02:35;22.50;1.00
837;DHT22;400;53.550;9.932;2023-07-13T10:05:04;22.40;1.00
837;DHT22;400;53.550;9.932;2023-07-13T10:07:32;21.90;1.00
837;DHT22;400;53.550;9.932;2023-07-13T10:10:01;21.80;1.00
837;DHT22;400;53.550;9.932;2023-07-13T10:12:35;21.90;1.00
837;DHT22;400;53.550;9.932;2023-07-13T10:15:07;22.00;1.00
837;DHT22;400;53.550;9.932;2023-07-13T10:17:44;22.00;1.00
837;DHT22;400;53.550;9.932;2023-07-13T10:20:12;22.30;1.00
837;DHT22;400;53.550;9.932;2023-07-13T10:22:49;22.20;1.00
837;DHT22;400;53.550;9.932;2023-07-13T10:25:23;21.90;1.00
837;DHT22;400;53.550;9.932;2023-07-13T10:27:55;21.90;1.00
837;DHT22;400;53.550;9.932;2023-07-13T10:30:28;21.80;1.00
837;DHT22;400;53.550;9.932;2023-07-13T10:32:57;21.90;1.00
837;DHT22;400;53.550;9.932;2023-07-13T10:35:25;22.10;1.00
837;DHT22;400;53.550;9.932;2023-07-13T10:37:57;22.30;1.00
837;DHT22;400;53.550;9.932;2023-07-13T10:40:33;22.40;1.00
837;DHT22;400;53.550;9.932;2023-07-13T10:43:10;22.60;1.00
837;DHT22;400;53.550;9.932;2023-07-13T10:45:47;22.80;1.00
837;DHT22;400;53.550;9.932;2023-07-13T10:48:25;22.70;1.00
837;DHT22;400;53.550;9.932;2023-07-13T10:50:55;22.70;1.00
837;DHT22;400;53.550;9.932;2023-07-13T10:53:29;22.60;1.00
837;DHT22;400;53.550;9.932;2023-07-13T10:55:59;22.70;1.00
837;DHT22;400;53.550;9.932;2023-07-13T10:58:35;22.40;1.00
837;DHT22;400;53.550;9.932;2023-07-13T11:01:09;22.50;1.00
837;DHT22;400;53.550;9.932;2023-07-13T11:03:50;22.60;1.00
837;DHT22;400;53.550;9.932;2023-07-13T11:06:33;22.70;1.00
837;DHT22;400;53.550;9.932;2023-07-13T11:09:19;23.20;1.00
837;DHT22;400;53.550;9.932;2023-07-13T11:11:46;22.70;1.00
837;DHT22;400;53.550;9.932;2023-07-13T11:14:30;23.00;1.00
837;DHT22;400;53.550;9.932;2023-07-13T11:16:59;23.20;1.00
837;DHT22;400;53.550;9.932;2023-07-13T11:19:51;23.00;1.00
837;DHT22;400;53.550;9.932;2023-07-13T11:22:24;22.80;1.00
837;DHT22;400;53.550;9.932;2023-07-13T11:25:01;22.80;1.00
837;DHT22;400;53.550;9.932;2023-07-13T11:27:40;23.00;1.00
837;DHT22;400;53.550;9.932;2023-07-13T11:30:31;23.20;1.00
837;DHT22;400;53.550;9.932;2023-07-13T11:33:12;23.50;1.00
837;DHT22;400;53.550;9.932;2023-07-13T11:35:48;23.80;1.00
837;DHT22;400;53.550;9.932;2023-07-13T11:38:21;23.90;1.00
837;DHT22;400;53.550;9.932;2023-07-13T11:40:53;23.90;1.00
837;DHT22;400;53.550;9.932;2023-07-13T11:43:22;24.00;1.00
837;DHT22;400;53.550;9.932;2023-07-13T11:45:51;23.70;1.00
837;DHT22;400;53.550;9.932;2023-07-13T11:48:20;23.50;1.00
837;DHT22;400;53.550;9.932;2023-07-13T11:50:57;23.60;1.00
837;DHT22;400;53.550;9.932;2023-07-13T11:53:36;23.60;1.00
837;DHT22;400;53.550;9.932;2023-07-13T11:56:05;23.20;1.00
837;DHT22;400;53.550;9.932;2023-07-13T11:58:36;22.80;1.00
837;DHT22;400;53.550;9.932;2023-07-13T12:01:18;23.00;1.00
837;DHT22;400;53.550;9.932;2023-07-13T12:03:50;23.00;1.00
837;DHT22;400;53.550;9.932;2023-07-13T12:06:27;23.10;1.00
837;DHT22;400;53.550;9.932;2023-07-13T12:08:58;23.00;1.00
837;DHT22;400;53.550;9.932;2023-07-13T12:11:26;22.80;1.00
837;DHT22;400;53.550;9.932;2023-07-13T12:13:53;22.70;1.00
837;DHT22;400;53.550;9.932;2023-07-13T12:16:27;22.50;1.00
837;DHT22;400;53.550;9.932;2023-07-13T12:18:54;21.50;1.00
837;DHT22;400;53.550;9.932;2023-07-13T12:21:28;20.90;1.00
837;DHT22;400;53.550;9.932;2023-07-13T12:23:56;20.20;1.00
837;DHT22;400;53.550;9.932;2023-07-13T12:26:23;19.90;1.00
837;DHT22;400;53.550;9.932;2023-07-13T12:28:53;19.00;1.00
837;DHT22;400;53.550;9.932;2023-07-13T12:31:33;19.20;1.00
837;DHT22;400;53.550;9.932;2023-07-13T12:34:06;19.10;1.00
837;DHT22;400;53.550;9.932;2023-07-13T12:36:46;18.90;1.00
837;DHT22;400;53.550;9.932;2023-07-13T12:39:22;19.10;1.00
837;DHT22;400;53.550;9.932;2023-07-13T12:41:54;19.50;1.00
837;DHT22;400;53.550;9.932;2023-07-13T12:44:44;19.20;1.00
837;DHT22;400;53.550;9.932;2023-07-13T12:47:16;19.50;1.00
837;DHT22;400;53.550;9.932;2023-07-13T12:49:54;19.20;1.00
837;DHT22;400;53.550;9.932;2023-07-13T12:52:29;19.70;1.00
837;DHT22;400;53.550;9.932;2023-07-13T12:55:05;20.00;1.00
837;DHT22;400;53.550;9.932;2023-07-13T12:57:40;20.00;1.00
837;DHT22;400;53.550;9.932;2023-07-13T13:00:27;20.10;1.00
837;DHT22;400;53.550;9.932;2023-07-13T13:02:57;19.80;1.00
837;DHT22;400;53.550;9.932;2023-07-13T13:05:26;19.70;1.00
837;DHT22;400;53.550;9.932;2023-07-13T13:07:53;19.40;1.00
837;DHT22;400;53.550;9.932;2023-07-13T13:10:22;19.40;1.00
837;DHT22;400;53.550;9.932;2023-07-13T13:12:54;19.60;1.00
837;DHT22;400;53.550;9.932;2023-07-13T13:15:25;19.70;1.00
837;DHT22;400;53.550;9.932;2023-07-13T13:17:52;20.00;1.00
837;DHT22;400;53.550;9.932;2023-07-13T13:20:21;20.20;1.00
837;DHT22;400;53.550;9.932;2023-07-13T13:22:48;20.10;1.00
837;DHT22;400;53.550;9.932;2023-07-13T13:25:15;20.20;1.00
837;DHT22;400;53.550;9.932;2023-07-13T13:27:47;20.30;1.00
837;DHT22;400;53.550;9.932;2023-07-13T13:30:18;20.50;1.00
837;DHT22;400;53.550;9.932;2023-07-13T13:32:49;20.30;1.00
837;DHT22;400;53.550;9.932;2023-07-13T13:35:19;20.70;1.00
837;DHT22;400;53.550;9.932;2023-07-13T13:37:49;20.80;1.00
837;DHT22;400;53.550;9.932;2023-07-13T13:40:20;21.00;1.00
837;DHT22;400;53.550;9.932;2023-07-13T13:42:48;21.00;1.00
837;DHT22;400;53.550;9.932;2023-07-13T13:45:19;21.30;1.00
837;DHT22;400;53.550;9.932;2023-07-13T13:47:49;21.50;1.00
837;DHT22;400;53.550;9.932;2023-07-13T13:50:22;21.40;1.00
837;DHT22;400;53.550;9.932;2023-07-13T13:52:54;21.20;1.00
837;DHT22;400;53.550;9.932;2023-07-13T13:55:22;21.50;1.00
837;DHT22;400;53.550;9.932;2023-07-13T13:57:50;21.30;1.00
837;DHT22;400;53.550;9.932;2023-07-13T14:00:20;21.00;1.00
837;DHT22;400;53.550;9.932;2023-07-13T14:02:49;21.10;1.00
837;DHT22;400;53.550;9.932;2023-07-13T14:05:25;21.20;1.00
837;DHT22;400;53.550;9.932;2023-07-13T14:07:54;20.70;1.00
837;DHT22;400;53.550;9.932;2023-07-13T14:10:22;20.60;1.00
837;DHT22;400;53.550;9.932;2023-07-13T14:12:52;20.90;1.00
837;DHT22;400;53.550;9.932;2023-07-13T14:15:21;21.30;1.00
837;DHT22;400;53.550;9.932;2023-07-13T14:17:48;21.10;1.00
837;DHT22;400;53.550;9.932;2023-07-13T14:20:16;21.20;1.00
837;DHT22;400;53.550;9.932;2023-07-13T14:22:43;20.90;1.00
837;DHT22;400;53.550;9.932;2023-07-13T14:25:12;20.60;1.00
837;DHT22;400;53.550;9.932;2023-07-13T14:27:40;20.80;1.00
837;DHT22;400;53.550;9.932;2023-07-13T14:30:12;20.90;1.00
837;DHT22;400;53.550;9.932;2023-07-13T14:32:40;21.00;1.00
837;DHT22;400;53.550;9.932;2023-07-13T14:35:08;21.10;1.00
837;DHT22;400;53.550;9.932;2023-07-13T14:37:36;21.10;1.00
837;DHT22;400;53.550;9.932;2023-07-13T14:40:14;21.00;1.00
837;DHT22;400;53.550;9.932;2023-07-13T14:42:45;21.20;1.00
837;DHT22;400;53.550;9.932;2023-07-13T14:45:13;21.10;1.00
837;DHT22;400;53.550;9.932;2023-07-13T14:47:44;21.10;1.00
837;DHT22;400;53.550;9.932;2023-07-13T14:50:17;21.00;1.00
837;DHT22;400;53.550;9.932;2023-07-13T14:52:45;21.00;1.00
837;DHT22;400;53.550;9.932;2023-07-13T14:55:18;20.90;1.00
837;DHT22;400;53.550;9.932;2023-07-13T14:57:50;20.70;1.00
837;DHT22;400;53.550;9.932;2023-07-13T15:00:21;20.70;1.00
837;DHT22;400;53.550;9.932;2023-07-13T15:02:54;20.70;1.00
837;DHT22;400;53.550;9.932;2023-07-13T15:05:29;20.60;1.00
837;DHT22;400;53.550;9.932;2023-07-13T15:08:01;20.70;1.00
837;DHT22;400;53.550;9.932;2023-07-13T15:10:36;20.80;1.00
837;DHT22;400;53.550;9.932;2023-07-13T15:13:14;20.90;1.00
837;DHT22;400;53.550;9.932;2023-07-13T15:15:47;21.00;1.00
837;DHT22;400;53.550;9.932;2023-07-13T15:18:17;21.10;1.00
837;DHT22;400;53.550;9.932;2023-07-13T15:20:46;21.40;1.00
837;DHT22;400;53.550;9.932;2023-07-13T15:23:14;21.20;1.00
837;DHT22;400;53.550;9.932;2023-07-13T15:25:45;21.30;1.00
837;DHT22;400;53.550;9.932;2023-07-13T15:28:15;21.40;1.00
837;DHT22;400;53.550;9.932;2023-07-13T15:30:44;21.20;1.00
837;DHT22;400;53.550;9.932;2023-07-13T15:33:14;21.00;1.00
837;DHT22;400;53.550;9.932;2023-07-13T15:35:42;21.10;1.00
837;DHT22;400;53.550;9.932;2023-07-13T15:38:16;21.30;1.00
837;DHT22;400;53.550;9.932;2023-07-13T15:40:46;21.40;1.00
837;DHT22;400;53.550;9.932;2023-07-13T15:43:15;21.70;1.00
837;DHT22;400;53.550;9.932;2023-07-13T15:45:43;21.60;1.00
837;DHT22;400;53.550;9.932;2023-07-13T15:48:16;21.70;1.00
837;DHT22;400;53.550;9.932;2023-07-13T15:50:45;21.40;1.00
837;DHT22;400;53.550;9.932;2023-07-13T15:53:14;21.20;1.00
837;DHT22;400;53.550;9.932;2023-07-13T15:55:45;21.30;1.00
837;DHT22;400;53.550;9.932;2023-07-13T15:58:14;21.50;1.00
837;DHT22;400;53.550;9.932;2023-07-13T16:00:42;21.50;1.00
837;DHT22;400;53.550;9.932;2023-07-13T16:03:10;21.80;1.00
837;DHT22;400;53.550;9.932;2023-07-13T16:05:40;22.10;1.00
837;DHT22;400;53.550;9.932;2023-07-13T16:08:23;22.00;1.00
837;DHT22;400;53.550;9.932;2023-07-13T16:10:52;21.90;1.00
837;DHT22;400;53.550;9.932;2023-07-13T16:13:20;21.90;1.00
837;DHT22;400;53.550;9.932;2023-07-13T16:15:47;21.90;1.00
837;DHT22;400;53.550;9.932;2023-07-13T16:18:14;21.70;1.00
837;DHT22;400;53.550;9.932;2023-07-13T16:20:42;21.70;1.00
837;DHT22;400;53.550;9.932;2023-07-13T16:23:11;21.50;1.00
837;DHT22;400;53.550;9.932;2023-07-13T16:25:39;21.40;1.00
837;DHT22;400;53.550;9.932;2023-07-13T16:28:12;21.20;1.00
837;DHT22;400;53.550;9.932;2023-07-13T16:30:39;21.10;1.00
837;DHT22;400;53.550;9.932;2023-07-13T16:33:07;20.80;1.00
837;DHT22;400;53.550;9.932;2023-07-13T16:35:37;20.70;1.00
837;DHT22;400;53.550;9.932;2023-07-13T16:38:14;20.70;1.00
837;DHT22;400;53.550;9.932;2023-07-13T16:40:44;20.30;1.00
837;DHT22;400;53.550;9.932;2023-07-13T16:43:17;20.40;1.00
837;DHT22;400;53.550;9.932;2023-07-13T16:45:47;20.30;1.00
837;DHT22;400;53.550;9.932;2023-07-13T16:48:18;20.30;1.00
837;DHT22;400;53.550;9.932;2023-07-13T16:50:51;20.30;1.00
837;DHT22;400;53.550;9.932;2023-07-13T16:53:21;20.20;1.00
837;DHT22;400;53.550;9.932;2023-07-13T16:55:49;20.10;1.00
837;DHT22;400;53.550;9.932;2023-07-13T16:58:18;20.20;1.00
837;DHT22;400;53.550;9.932;2023-07-13T17:00:46;20.20;1.00
837;DHT22;400;53.550;9.932;2023-07-13T17:03:15;20.30;1.00
837;DHT22;400;53.550;9.932;2023-07-13T17:05:45;20.40;1.00
837;DHT22;400;53.550;9.932;2023-07-13T17:08:15;20.40;1.00
837;DHT22;400;53.550;9.932;2023-07-13T17:10:47;20.40;1.00
837;DHT22;400;53.550;9.932;2023-07-13T17:13:17;21.10;1.00
837;DHT22;400;53.550;9.932;2023-07-13T17:15:45;22.10;1.00